Beautriton — PHQC — position and weather

sailwx.info

Track history (hours):
 
Tides and Currents Weather Stations Pressure Air Temp Water Temp Dewpoint Dewpoint Depression Visibility Wind Speed Wind Dir Waves Ship Positions

Beautriton

Last reported at 2017-Nov-10 15:21 UTC. Time now 2017-Nov-23 15:22 UTC.
Position N 35°37' W 025°31'.
Warning: this ship's position is 13 days out of date.

Length 118 m; draft 5.9 m.

Type: Cargo ship. MMSI: 246215000.

Date/timePositionNaut miles runAvg speedWind from/ knotsBaromVisibWave heightAir tempDewpointWater temp
2017-Nov-10 15:21N 35°37' W 025°31'512.8
2017-Nov-10 14:56N 35°40' W 025°26'612.7
2017-Nov-10 14:30N 35°43' W 025°21'713.1
2017-Nov-10 14:00N 35°47' W 025°14'613.0
2017-Nov-10 13:30N 35°51' W 025°07'612.9
2017-Nov-10 13:00N 35°54' W 025°01'612.6
2017-Nov-10 12:30N 35°58' W 024°55'612.9
2017-Nov-10 12:01N 36°02' W 024°48'612.9
2017-Nov-10 11:31N 36°06' W 024°42'713.0
2017-Nov-10 11:00N 36°09' W 024°35'612.7
2017-Nov-10 10:31N 36°13' W 024°29'612.8
2017-Nov-10 10:00N 36°17' W 024°23'612.6
2017-Nov-10 09:31N 36°21' W 024°16'612.8
2017-Nov-10 09:01N 36°25' W 024°10'612.7
2017-Nov-10 08:30N 36°28' W 024°03'612.7
2017-Nov-10 08:01N 36°32' W 023°57'612.8
2017-Nov-10 07:30N 36°35' W 023°50'612.8
2017-Nov-10 07:01N 36°39' W 023°44'612.5
2017-Nov-10 06:31N 36°42' W 023°37'612.6
2017-Nov-10 06:00N 36°46' W 023°31'612.6
2017-Nov-10 05:30N 36°50' W 023°24'  
2017-Nov-07 02:33N 43°49' W 007°60'113.0
2017-Nov-07 02:30N 43°49' W 007°59'1012.6
2017-Nov-07 01:44N 43°51' W 007°45'312.9
2017-Nov-07 01:31N 43°51' W 007°42'712.9
2017-Nov-07 01:00N 43°50' W 007°32'612.8
2017-Nov-07 00:31N 43°49' W 007°24'612.5
2017-Nov-07 00:00N 43°49' W 007°15'612.8
2017-Nov-06 23:30N 43°48' W 007°06'3612.9
2017-Nov-06 20:42N 43°44' W 006°16'312.8
2017-Nov-06 20:30N 43°44' W 006°13'25 1.4
2017-Nov-06 02:00N 43°33' W 005°41'0 0.0
2017-Nov-06 01:30N 43°33' W 005°41'0 0.0
2017-Nov-06 01:00N 43°33' W 005°41'0 0.0
2017-Nov-06 00:30N 43°33' W 005°41'0 0.0
2017-Nov-05 20:54N 43°33' W 005°41'0 0.0
2017-Nov-05 14:06N 43°33' W 005°41'0 0.0
2017-Nov-05 13:48N 43°33' W 005°41'0 0.0
2017-Nov-05 13:18N 43°33' W 005°41'0 0.0
2017-Nov-05 12:48N 43°33' W 005°41'0 0.0
2017-Nov-05 12:24N 43°33' W 005°41'0 0.0
2017-Nov-05 12:00N 43°33' W 005°41'0 0.0
2017-Nov-05 11:30N 43°33' W 005°41'0 0.0
2017-Nov-05 10:48N 43°33' W 005°41'0 0.0
2017-Nov-05 10:30N 43°33' W 005°41'0 0.0
2017-Nov-05 10:00N 43°33' W 005°41'0 0.0
2017-Nov-05 09:30N 43°33' W 005°41'0 0.0
2017-Nov-05 08:18N 43°33' W 005°41'0 0.0
2017-Nov-05 08:00N 43°33' W 005°41'0 0.6
2017-Nov-05 07:29N 43°34' W 005°41'3 5.7
2017-Nov-05 07:00N 43°36' W 005°40'4 8.0
2017-Nov-05 06:30N 43°40' W 005°41'4 8.3
2017-Nov-05 06:00N 43°45' W 005°41'5 9.5
2017-Nov-05 05:30N 43°49' W 005°41'4 9.0
2017-Nov-05 05:00N 43°54' W 005°41'5 9.1
2017-Nov-05 04:30N 43°59' W 005°42'6 8.9
2017-Nov-05 03:52N 44°04' W 005°42'35010.0
2017-Nov-03 17:02N 49°43' W 003°37'011.4
2017-Nov-03 17:00N 49°43' W 003°37'811.4
2017-Nov-03 16:19N 49°48' W 003°26'411.8
2017-Nov-03 16:00N 49°50' W 003°22'712.2
2017-Nov-03 15:26N 49°53' W 003°12'613.0
2017-Nov-03 15:00N 49°56' W 003°05'713.8
2017-Nov-03 14:30N 49°59' W 002°55'714.7
2017-Nov-03 14:01N 50°01' W 002°44'815.5
2017-Nov-03 13:28N 50°03' W 002°32'7214.1
2017-Nov-03 08:23N 50°23' W 000°44'4 9.9
2017-Nov-03 07:59N 50°24' W 000°38'510.0
2017-Nov-03 07:28N 50°26' W 000°30'510.3
2017-Nov-03 07:00N 50°27' W 000°23'510.9
2017-Nov-03 06:30N 50°29' W 000°15'611.6
2017-Nov-03 06:00N 50°30' W 000°06'612.1
2017-Nov-03 05:30N 50°32' E 000°03'612.8
2017-Nov-03 05:00N 50°34' E 000°13'713.6
2017-Nov-03 04:31N 50°36' E 000°23'714.0
2017-Nov-03 04:01N 50°38' E 000°33'714.4
2017-Nov-03 03:31N 50°42' E 000°43'714.3
2017-Nov-03 03:01N 50°46' E 000°52'714.0
2017-Nov-03 02:30N 50°51' E 001°01'713.4
2017-Nov-03 02:00N 50°55' E 001°09'612.8
2017-Nov-03 01:30N 50°59' E 001°17'612.1
2017-Nov-03 01:00N 51°03' E 001°24'611.3
2017-Nov-03 00:30N 51°07' E 001°31'510.1
2017-Nov-03 00:00N 51°10' E 001°37'5 9.8
2017-Nov-02 23:30N 51°14' E 001°41'510.6
2017-Nov-02 23:00N 51°19' E 001°43'611.4
2017-Nov-02 22:30N 51°25' E 001°45'612.2
2017-Nov-02 22:00N 51°31' E 001°45'713.4
2017-Nov-02 21:31N 51°38' E 001°45'714.1
2017-Nov-02 21:01N 51°45' E 001°44'612.6
2017-Nov-02 20:30N 51°50' E 001°39'612.0
2017-Nov-02 20:00N 51°55' E 001°32'510.5
2017-Nov-02 19:30N 51°56' E 001°24'4 7.6
2017-Nov-02 19:00N 51°57' E 001°18'4 7.4
2017-Nov-02 18:30N 51°60' E 001°14'3 6.8
2017-Nov-02 18:01N 52°02' E 001°10'1 1.2
2017-Nov-02 17:30N 52°02' E 001°10'0 0.0
2017-Nov-02 17:00N 52°02' E 001°10'0 0.0
2017-Nov-02 16:31N 52°02' E 001°10'0 0.0
2017-Nov-02 15:58N 52°02' E 001°10'0 0.0
2017-Nov-02 15:28N 52°02' E 001°10'0 0.0
2017-Nov-02 14:58N 52°02' E 001°10'0 0.0
2017-Nov-02 14:28N 52°02' E 001°10'0 0.0
2017-Nov-02 13:58N 52°02' E 001°10'0 0.0
2017-Nov-02 13:28N 52°02' E 001°10'0 0.0
2017-Nov-02 12:58N 52°02' E 001°10'0 0.0
2017-Nov-02 12:28N 52°02' E 001°10'0 0.0
2017-Nov-02 11:58N 52°02' E 001°10'0 0.0
2017-Nov-02 11:28N 52°02' E 001°10'0 0.0
2017-Nov-02 10:58N 52°02' E 001°10'0 0.0
2017-Nov-02 10:28N 52°02' E 001°10'0 0.0
2017-Nov-02 09:58N 52°02' E 001°10'0 0.0
2017-Nov-02 09:28N 52°02' E 001°10'0 0.0
2017-Nov-02 08:58N 52°02' E 001°10'0 0.0
2017-Nov-02 08:28N 52°02' E 001°10'0 0.0
2017-Nov-02 07:58N 52°02' E 001°10'0 0.0
2017-Nov-02 07:28N 52°02' E 001°10'0 0.0
2017-Nov-02 06:58N 52°02' E 001°10'0 0.0
2017-Nov-02 06:28N 52°02' E 001°10'0 0.0
2017-Nov-02 05:58N 52°02' E 001°10'0 0.0
2017-Nov-02 05:28N 52°02' E 001°10'0 0.0
2017-Nov-02 04:58N 52°02' E 001°10'0 0.0
2017-Nov-02 04:28N 52°02' E 001°10'0 0.0
2017-Nov-02 03:58N 52°02' E 001°10'0 0.0
2017-Nov-02 03:28N 52°02' E 001°10'0 0.0
2017-Nov-02 02:58N 52°02' E 001°10'0 0.0
2017-Nov-02 02:28N 52°02' E 001°10'0 0.0
2017-Nov-02 01:58N 52°02' E 001°10'0 0.0
2017-Nov-02 01:28N 52°02' E 001°10'0 0.0
2017-Nov-02 00:58N 52°02' E 001°10'0 0.0
2017-Nov-02 00:28N 52°02' E 001°10'0 0.0
2017-Nov-01 23:58N 52°02' E 001°10'0 0.0
2017-Nov-01 23:28N 52°02' E 001°10'0 0.0
2017-Nov-01 22:58N 52°02' E 001°10'0 0.0
2017-Nov-01 22:28N 52°02' E 001°10'0 0.0
2017-Nov-01 21:59N 52°02' E 001°10'0 0.0
2017-Nov-01 21:28N 52°02' E 001°10'0 0.0
2017-Nov-01 20:58N 52°02' E 001°10'0 0.0
2017-Nov-01 20:28N 52°02' E 001°10'0 0.0
2017-Nov-01 19:58N 52°02' E 001°10'0 0.0
2017-Nov-01 19:30N 52°02' E 001°10'1 2.8
2017-Nov-01 19:00N 52°01' E 001°11'3 6.1
2017-Nov-01 18:30N 51°60' E 001°15'121 7.3
2017-Nov-01 02:00N 51°20' E 004°18'3 6.8
2017-Nov-01 01:30N 51°17' E 004°21'2 4.3
2017-Nov-01 01:00N 51°15' E 004°22'0 0.0
2017-Nov-01 00:30N 51°15' E 004°22'0 0.0
2017-Nov-01 00:00N 51°15' E 004°22'0 0.0
2017-Oct-31 23:28N 51°15' E 004°22'0 0.0
2017-Oct-31 22:58N 51°15' E 004°22'0 0.0
2017-Oct-31 22:28N 51°15' E 004°22'0 0.0
2017-Oct-31 21:58N 51°15' E 004°22'0 0.0
2017-Oct-31 21:28N 51°15' E 004°22'0 0.0
2017-Oct-31 20:58N 51°15' E 004°22'0 0.0
2017-Oct-31 20:28N 51°15' E 004°22'0 0.0
2017-Oct-31 19:58N 51°15' E 004°22'0 0.0
2017-Oct-31 19:28N 51°15' E 004°22'0 0.0
2017-Oct-31 18:58N 51°15' E 004°22'0 0.0
2017-Oct-31 18:28N 51°15' E 004°22'0 0.0
2017-Oct-31 17:58N 51°15' E 004°22'0 0.0
2017-Oct-31 17:25N 51°15' E 004°22'0 0.0
2017-Oct-31 16:58N 51°15' E 004°22'0 0.0
2017-Oct-31 16:28N 51°15' E 004°22'0 0.0
2017-Oct-31 15:58N 51°15' E 004°22'0 0.0
2017-Oct-31 15:28N 51°15' E 004°22'  
Track history (hours):
 
Tides and Currents Weather Stations Pressure Air Temp Water Temp Dewpoint Dewpoint Depression Visibility Wind Speed Wind Dir Waves Ship Positions

Beautriton

Last reported at 2017-Nov-10 15:21 UTC. Time now 2017-Nov-23 15:22 UTC.
Position N 35°37' W 025°31'.
Warning: this ship's position is 13 days out of date.

Length 118 m; draft 5.9 m.

Type: Cargo ship. MMSI: 246215000.

Date/timePositionNaut miles runAvg speedWind from/ knotsBaromVisibWave heightAir tempDewpointWater temp
2017-Nov-10 15:21N 35°37' W 025°31'512.8
2017-Nov-10 14:56N 35°40' W 025°26'612.7
2017-Nov-10 14:30N 35°43' W 025°21'713.1
2017-Nov-10 14:00N 35°47' W 025°14'613.0
2017-Nov-10 13:30N 35°51' W 025°07'612.9
2017-Nov-10 13:00N 35°54' W 025°01'612.6
2017-Nov-10 12:30N 35°58' W 024°55'612.9
2017-Nov-10 12:01N 36°02' W 024°48'612.9
2017-Nov-10 11:31N 36°06' W 024°42'713.0
2017-Nov-10 11:00N 36°09' W 024°35'612.7
2017-Nov-10 10:31N 36°13' W 024°29'612.8
2017-Nov-10 10:00N 36°17' W 024°23'612.6
2017-Nov-10 09:31N 36°21' W 024°16'612.8
2017-Nov-10 09:01N 36°25' W 024°10'612.7
2017-Nov-10 08:30N 36°28' W 024°03'612.7
2017-Nov-10 08:01N 36°32' W 023°57'612.8
2017-Nov-10 07:30N 36°35' W 023°50'612.8
2017-Nov-10 07:01N 36°39' W 023°44'612.5
2017-Nov-10 06:31N 36°42' W 023°37'612.6
2017-Nov-10 06:00N 36°46' W 023°31'612.6
2017-Nov-10 05:30N 36°50' W 023°24'  
2017-Nov-07 02:33N 43°49' W 007°60'113.0
2017-Nov-07 02:30N 43°49' W 007°59'1012.6
2017-Nov-07 01:44N 43°51' W 007°45'312.9
2017-Nov-07 01:31N 43°51' W 007°42'712.9
2017-Nov-07 01:00N 43°50' W 007°32'612.8
2017-Nov-07 00:31N 43°49' W 007°24'612.5
2017-Nov-07 00:00N 43°49' W 007°15'612.8
2017-Nov-06 23:30N 43°48' W 007°06'3612.9
2017-Nov-06 20:42N 43°44' W 006°16'312.8
2017-Nov-06 20:30N 43°44' W 006°13'25 1.4
2017-Nov-06 02:00N 43°33' W 005°41'0 0.0
2017-Nov-06 01:30N 43°33' W 005°41'0 0.0
2017-Nov-06 01:00N 43°33' W 005°41'0 0.0
2017-Nov-06 00:30N 43°33' W 005°41'0 0.0
2017-Nov-05 20:54N 43°33' W 005°41'0 0.0
2017-Nov-05 14:06N 43°33' W 005°41'0 0.0
2017-Nov-05 13:48N 43°33' W 005°41'0 0.0
2017-Nov-05 13:18N 43°33' W 005°41'0 0.0
2017-Nov-05 12:48N 43°33' W 005°41'0 0.0
2017-Nov-05 12:24N 43°33' W 005°41'0 0.0
2017-Nov-05 12:00N 43°33' W 005°41'0 0.0
2017-Nov-05 11:30N 43°33' W 005°41'0 0.0
2017-Nov-05 10:48N 43°33' W 005°41'0 0.0
2017-Nov-05 10:30N 43°33' W 005°41'0 0.0
2017-Nov-05 10:00N 43°33' W 005°41'0 0.0
2017-Nov-05 09:30N 43°33' W 005°41'0 0.0
2017-Nov-05 08:18N 43°33' W 005°41'0 0.0
2017-Nov-05 08:00N 43°33' W 005°41'0 0.6
2017-Nov-05 07:29N 43°34' W 005°41'3 5.7
2017-Nov-05 07:00N 43°36' W 005°40'4 8.0
2017-Nov-05 06:30N 43°40' W 005°41'4 8.3
2017-Nov-05 06:00N 43°45' W 005°41'5 9.5
2017-Nov-05 05:30N 43°49' W 005°41'4 9.0
2017-Nov-05 05:00N 43°54' W 005°41'5 9.1
2017-Nov-05 04:30N 43°59' W 005°42'6 8.9
2017-Nov-05 03:52N 44°04' W 005°42'35010.0
2017-Nov-03 17:02N 49°43' W 003°37'011.4
2017-Nov-03 17:00N 49°43' W 003°37'811.4
2017-Nov-03 16:19N 49°48' W 003°26'411.8
2017-Nov-03 16:00N 49°50' W 003°22'712.2
2017-Nov-03 15:26N 49°53' W 003°12'613.0
2017-Nov-03 15:00N 49°56' W 003°05'713.8
2017-Nov-03 14:30N 49°59' W 002°55'714.7
2017-Nov-03 14:01N 50°01' W 002°44'815.5
2017-Nov-03 13:28N 50°03' W 002°32'7214.1
2017-Nov-03 08:23N 50°23' W 000°44'4 9.9
2017-Nov-03 07:59N 50°24' W 000°38'510.0
2017-Nov-03 07:28N 50°26' W 000°30'510.3
2017-Nov-03 07:00N 50°27' W 000°23'510.9
2017-Nov-03 06:30N 50°29' W 000°15'611.6
2017-Nov-03 06:00N 50°30' W 000°06'612.1
2017-Nov-03 05:30N 50°32' E 000°03'612.8
2017-Nov-03 05:00N 50°34' E 000°13'713.6
2017-Nov-03 04:31N 50°36' E 000°23'714.0
2017-Nov-03 04:01N 50°38' E 000°33'714.4
2017-Nov-03 03:31N 50°42' E 000°43'714.3
2017-Nov-03 03:01N 50°46' E 000°52'714.0
2017-Nov-03 02:30N 50°51' E 001°01'713.4
2017-Nov-03 02:00N 50°55' E 001°09'612.8
2017-Nov-03 01:30N 50°59' E 001°17'612.1
2017-Nov-03 01:00N 51°03' E 001°24'611.3
2017-Nov-03 00:30N 51°07' E 001°31'510.1
2017-Nov-03 00:00N 51°10' E 001°37'5 9.8
2017-Nov-02 23:30N 51°14' E 001°41'510.6
2017-Nov-02 23:00N 51°19' E 001°43'611.4
2017-Nov-02 22:30N 51°25' E 001°45'612.2
2017-Nov-02 22:00N 51°31' E 001°45'713.4
2017-Nov-02 21:31N 51°38' E 001°45'714.1
2017-Nov-02 21:01N 51°45' E 001°44'612.6
2017-Nov-02 20:30N 51°50' E 001°39'612.0
2017-Nov-02 20:00N 51°55' E 001°32'510.5
2017-Nov-02 19:30N 51°56' E 001°24'4 7.6
2017-Nov-02 19:00N 51°57' E 001°18'4 7.4
2017-Nov-02 18:30N 51°60' E 001°14'3 6.8
2017-Nov-02 18:01N 52°02' E 001°10'1 1.2
2017-Nov-02 17:30N 52°02' E 001°10'0 0.0
2017-Nov-02 17:00N 52°02' E 001°10'0 0.0
2017-Nov-02 16:31N 52°02' E 001°10'0 0.0
2017-Nov-02 15:58N 52°02' E 001°10'0 0.0
2017-Nov-02 15:28N 52°02' E 001°10'0 0.0
2017-Nov-02 14:58N 52°02' E 001°10'0 0.0
2017-Nov-02 14:28N 52°02' E 001°10'0 0.0
2017-Nov-02 13:58N 52°02' E 001°10'0 0.0
2017-Nov-02 13:28N 52°02' E 001°10'0 0.0
2017-Nov-02 12:58N 52°02' E 001°10'0 0.0
2017-Nov-02 12:28N 52°02' E 001°10'0 0.0
2017-Nov-02 11:58N 52°02' E 001°10'0 0.0
2017-Nov-02 11:28N 52°02' E 001°10'0 0.0
2017-Nov-02 10:58N 52°02' E 001°10'0 0.0
2017-Nov-02 10:28N 52°02' E 001°10'0 0.0
2017-Nov-02 09:58N 52°02' E 001°10'0 0.0
2017-Nov-02 09:28N 52°02' E 001°10'0 0.0
2017-Nov-02 08:58N 52°02' E 001°10'0 0.0
2017-Nov-02 08:28N 52°02' E 001°10'0 0.0
2017-Nov-02 07:58N 52°02' E 001°10'0 0.0
2017-Nov-02 07:28N 52°02' E 001°10'0 0.0
2017-Nov-02 06:58N 52°02' E 001°10'0 0.0
2017-Nov-02 06:28N 52°02' E 001°10'0 0.0
2017-Nov-02 05:58N 52°02' E 001°10'0 0.0
2017-Nov-02 05:28N 52°02' E 001°10'0 0.0
2017-Nov-02 04:58N 52°02' E 001°10'0 0.0
2017-Nov-02 04:28N 52°02' E 001°10'0 0.0
2017-Nov-02 03:58N 52°02' E 001°10'0 0.0
2017-Nov-02 03:28N 52°02' E 001°10'0 0.0
2017-Nov-02 02:58N 52°02' E 001°10'0 0.0
2017-Nov-02 02:28N 52°02' E 001°10'0 0.0
2017-Nov-02 01:58N 52°02' E 001°10'0 0.0
2017-Nov-02 01:28N 52°02' E 001°10'0 0.0
2017-Nov-02 00:58N 52°02' E 001°10'0 0.0
2017-Nov-02 00:28N 52°02' E 001°10'0 0.0
2017-Nov-01 23:58N 52°02' E 001°10'0 0.0
2017-Nov-01 23:28N 52°02' E 001°10'0 0.0
2017-Nov-01 22:58N 52°02' E 001°10'0 0.0
2017-Nov-01 22:28N 52°02' E 001°10'0 0.0
2017-Nov-01 21:59N 52°02' E 001°10'0 0.0
2017-Nov-01 21:28N 52°02' E 001°10'0 0.0
2017-Nov-01 20:58N 52°02' E 001°10'0 0.0
2017-Nov-01 20:28N 52°02' E 001°10'0 0.0
2017-Nov-01 19:58N 52°02' E 001°10'0 0.0
2017-Nov-01 19:30N 52°02' E 001°10'1 2.8
2017-Nov-01 19:00N 52°01' E 001°11'3 6.1
2017-Nov-01 18:30N 51°60' E 001°15'121 7.3
2017-Nov-01 02:00N 51°20' E 004°18'3 6.8
2017-Nov-01 01:30N 51°17' E 004°21'2 4.3
2017-Nov-01 01:00N 51°15' E 004°22'0 0.0
2017-Nov-01 00:30N 51°15' E 004°22'0 0.0
2017-Nov-01 00:00N 51°15' E 004°22'0 0.0
2017-Oct-31 23:28N 51°15' E 004°22'0 0.0
2017-Oct-31 22:58N 51°15' E 004°22'0 0.0
2017-Oct-31 22:28N 51°15' E 004°22'0 0.0
2017-Oct-31 21:58N 51°15' E 004°22'0 0.0
2017-Oct-31 21:28N 51°15' E 004°22'0 0.0
2017-Oct-31 20:58N 51°15' E 004°22'0 0.0
2017-Oct-31 20:28N 51°15' E 004°22'0 0.0
2017-Oct-31 19:58N 51°15' E 004°22'0 0.0
2017-Oct-31 19:28N 51°15' E 004°22'0 0.0
2017-Oct-31 18:58N 51°15' E 004°22'0 0.0
2017-Oct-31 18:28N 51°15' E 004°22'0 0.0
2017-Oct-31 17:58N 51°15' E 004°22'0 0.0
2017-Oct-31 17:25N 51°15' E 004°22'0 0.0
2017-Oct-31 16:58N 51°15' E 004°22'0 0.0
2017-Oct-31 16:28N 51°15' E 004°22'0 0.0
2017-Oct-31 15:58N 51°15' E 004°22'0 0.0
2017-Oct-31 15:28N 51°15' E 004°22'  

Dump ship's entire track history